Time;durP1;ratioP1;P1;durP2;ratioP2;P2;SDS_P1;SDS_P2;PMS_P1;PMS_P2;Temp;Humidity;BMP_temperature;BMP_pressure;BME280_temperature;BME280_humidity;BME280_pressure;Samples;Min_cycle;Max_cycle;Signal;HPM_P1;HPM_P2
2022/05/30 00:00:21;;;;;;;5.17;4.25;;;;;;;11.47;100.00;101113.84;1688215;85;21012;-80
2022/05/30 00:02:49;;;;;;;6.20;4.17;;;;;;;11.49;100.00;101118.48;1688011;85;21047;-81
2022/05/30 00:05:20;;;;;;;6.35;5.10;;;;;;;11.49;100.00;101115.88;1688228;85;21075;-81
2022/05/30 00:07:48;;;;;;;5.65;5.03;;;;;;;11.42;100.00;101114.63;1688181;85;21032;-80
2022/05/30 00:10:23;;;;;;;5.30;4.80;;;;;;;11.30;100.00;101114.56;1688019;85;21122;-86
2022/05/30 00:12:49;;;;;;;6.62;5.15;;;;;;;11.19;100.00;101107.95;1686778;83;21114;-80
2022/05/30 00:15:20;;;;;;;6.37;4.60;;;;;;;11.13;100.00;101107.08;1659186;85;21111;-80
2022/05/30 00:17:55;;;;;;;7.17;4.90;;;;;;;11.10;100.00;101099.47;1688107;85;21523;-79
2022/05/30 00:20:23;;;;;;;8.55;5.67;;;;;;;11.09;100.00;101100.44;1656231;85;21111;-80
2022/05/30 00:22:51;;;;;;;5.17;4.60;;;;;;;11.08;100.00;101102.67;1687675;84;21158;-80
2022/05/30 00:25:19;;;;;;;5.90;4.58;;;;;;;11.02;100.00;101102.14;1685129;83;21577;-81
2022/05/30 00:27:47;;;;;;;6.90;5.22;;;;;;;10.97;100.00;101108.15;1689884;83;21063;-83
2022/05/30 00:30:16;;;;;;;6.20;5.08;;;;;;;10.92;100.00;101120.67;1690430;83;21020;-83
2022/05/30 00:32:44;;;;;;;6.78;4.70;;;;;;;10.85;100.00;101118.95;1690025;84;21377;-80
2022/05/30 00:35:13;;;;;;;5.15;4.62;;;;;;;10.80;100.00;101120.19;1690442;84;21127;-81
2022/05/30 00:37:40;;;;;;;5.90;4.40;;;;;;;10.74;100.00;101116.22;1689942;84;21052;-81
2022/05/30 00:40:09;;;;;;;6.60;4.70;;;;;;;10.71;100.00;101115.97;1690412;83;21107;-80
2022/05/30 00:42:37;;;;;;;4.58;4.15;;;;;;;10.69;100.00;101115.27;1690118;83;20997;-80
2022/05/30 00:45:06;;;;;;;6.28;4.37;;;;;;;10.68;100.00;101116.64;1670608;84;21063;-81
2022/05/30 00:47:33;;;;;;;4.70;4.10;;;;;;;10.68;100.00;101103.62;1690219;83;21184;-81
2022/05/30 00:50:01;;;;;;;7.00;5.75;;;;;;;10.69;100.00;101093.12;1690032;83;21571;-84
2022/05/30 00:52:33;;;;;;;6.60;5.90;;;;;;;10.70;100.00;101096.06;1690192;83;21008;-83
2022/05/30 00:55:15;;;;;;;6.55;5.50;;;;;;;10.67;100.00;101088.93;1683907;83;21072;-80
2022/05/30 00:57:46;;;;;;;10.82;5.95;;;;;;;10.58;100.00;101080.80;1669385;84;21046;-80
2022/05/30 01:00:19;;;;;;;6.22;5.53;;;;;;;10.51;100.00;101088.67;1690293;83;21146;-81
2022/05/30 01:06:30;;;;;;;5.85;5.12;;;;;;;10.46;100.00;101082.95;1690073;83;21083;-84
2022/05/30 01:08:04;;;;;;;6.70;5.70;;;;;;;10.32;100.00;101073.42;1689990;83;21111;-83
2022/05/30 01:10:33;;;;;;;9.90;6.42;;;;;;;10.26;100.00;101076.44;1690152;83;21627;-82
2022/05/30 01:13:00;;;;;;;9.00;6.40;;;;;;;10.21;100.00;101076.74;1690459;83;21821;-80
2022/05/30 01:15:31;;;;;;;8.58;5.53;;;;;;;10.16;100.00;101074.07;1690058;83;21021;-80
2022/05/30 01:18:03;;;;;;;6.40;5.72;;;;;;;10.07;100.00;101069.84;1690492;84;21033;-81
2022/05/30 01:20:36;;;;;;;5.80;5.20;;;;;;;9.98;100.00;101067.84;1684414;83;21569;-80
2022/05/30 01:23:59;;;;;;;8.15;5.53;;;;;;;9.88;100.00;101071.52;1683530;83;21056;-81
2022/05/30 01:27:06;;;;;;;7.35;5.10;;;;;;;9.84;100.00;101069.20;1665677;84;21316;-81
2022/05/30 01:29:42;;;;;;;8.25;5.30;;;;;;;9.87;100.00;101073.74;1682311;83;21067;-80
2022/05/30 01:32:09;;;;;;;8.20;6.20;;;;;;;9.88;100.00;101060.28;1682207;83;21096;-79
2022/05/30 01:34:38;;;;;;;7.75;5.55;;;;;;;9.88;100.00;101056.39;1689858;83;21016;-86
2022/05/30 01:37:06;;;;;;;10.15;6.05;;;;;;;9.81;100.00;101052.52;1682057;83;21029;-80
2022/05/30 01:39:36;;;;;;;6.17;5.30;;;;;;;9.75;100.00;101053.27;1682341;83;21085;-79
2022/05/30 01:42:05;;;;;;;7.92;6.10;;;;;;;9.73;100.00;101062.95;1652875;85;21724;-82
2022/05/30 01:44:32;;;;;;;5.95;5.35;;;;;;;9.74;100.00;101063.77;1689795;83;21545;-81
2022/05/30 01:47:00;;;;;;;9.25;6.70;;;;;;;9.76;100.00;101063.22;1682489;83;21120;-82
2022/05/30 01:49:28;;;;;;;8.70;6.80;;;;;;;9.77;100.00;101062.29;1682154;83;21033;-80
2022/05/30 01:51:57;;;;;;;7.62;6.78;;;;;;;9.74;100.00;101071.09;1682229;83;21236;-80
2022/05/30 01:54:25;;;;;;;8.95;7.40;;;;;;;9.71;100.00;101070.46;1689545;83;21016;-80
2022/05/30 01:56:57;;;;;;;9.60;7.30;;;;;;;9.69;100.00;101077.07;1677363;83;21057;-79
2022/05/30 01:59:26;;;;;;;8.50;6.97;;;;;;;9.66;100.00;101070.75;1677486;83;21033;-80
2022/05/30 02:01:58;;;;;;;8.98;7.05;;;;;;;9.68;100.00;101062.88;1673019;84;21093;-80
2022/05/30 02:04:25;;;;;;;11.68;7.80;;;;;;;9.73;100.00;101064.26;1689859;83;21158;-80
2022/05/30 02:06:52;;;;;;;8.55;7.55;;;;;;;9.78;100.00;101073.88;1689663;83;21063;-80
2022/05/30 02:09:20;;;;;;;10.80;8.45;;;;;;;9.83;100.00;101078.79;1682191;83;21044;-81
2022/05/30 02:11:47;;;;;;;12.43;7.75;;;;;;;9.87;100.00;101084.15;1682081;85;21024;-80
2022/05/30 02:14:17;;;;;;;11.43;7.28;;;;;;;9.91;100.00;101083.03;1677805;83;21005;-79
2022/05/30 02:17:04;;;;;;;8.23;6.60;;;;;;;9.93;100.00;101080.32;1689571;83;39078;-79
2022/05/30 02:19:40;;;;;;;8.40;7.28;;;;;;;9.96;100.00;101080.13;1682130;83;21083;-80
2022/05/30 02:22:14;;;;;;;8.88;6.70;;;;;;;9.99;100.00;101079.91;1682212;83;21546;-79
2022/05/30 02:24:41;;;;;;;10.98;6.87;;;;;;;10.01;100.00;101081.14;1689579;83;21059;-85
2022/05/30 02:27:12;;;;;;;7.40;6.47;;;;;;;10.04;100.00;101083.52;1683904;82;21056;-81
2022/05/30 02:29:43;;;;;;;8.90;7.15;;;;;;;10.07;100.00;101087.23;1679843;84;21153;-79
2022/05/30 02:32:11;;;;;;;10.35;7.17;;;;;;;10.09;100.00;101079.69;1651006;85;21052;-79
2022/05/30 02:37:26;;;;;;;11.22;7.28;;;;;;;10.13;100.00;101088.61;1672359;84;21068;-78
2022/05/30 02:39:55;;;;;;;11.30;7.37;;;;;;;10.13;100.00;101082.92;1669278;84;21007;-79
2022/05/30 02:42:42;;;;;;;9.53;7.20;;;;;;;10.15;100.00;101086.71;1679496;84;21260;-79
2022/05/30 02:45:11;;;;;;;10.95;7.40;;;;;;;10.17;100.00;101092.66;1672190;84;21770;-79
2022/05/30 02:47:39;;;;;;;9.40;7.47;;;;;;;10.22;100.00;101100.98;1680135;84;21060;-79
2022/05/30 02:50:09;;;;;;;10.88;7.70;;;;;;;10.26;100.00;101107.19;1679764;84;21055;-79
2022/05/30 02:52:36;;;;;;;11.73;8.15;;;;;;;10.33;100.00;101101.61;1680081;84;21079;-80
2022/05/30 02:55:05;;;;;;;11.35;7.90;;;;;;;10.38;100.00;101102.16;1680490;84;21152;-80
2022/05/30 02:57:52;;;;;;;10.15;7.42;;;;;;;10.43;100.00;101112.27;1672356;84;21088;-79
2022/05/30 03:00:20;;;;;;;11.18;7.78;;;;;;;10.49;100.00;101105.34;1680116;84;21118;-83
2022/05/30 03:02:49;;;;;;;14.73;9.28;;;;;;;10.54;100.00;101101.49;1669264;84;21566;-86
2022/05/30 03:05:16;;;;;;;8.28;7.37;;;;;;;10.61;100.00;101103.67;1672884;84;21064;-85
2022/05/30 03:07:44;;;;;;;9.78;8.10;;;;;;;10.66;100.00;101110.25;1679593;84;21178;-87
2022/05/30 03:10:13;;;;;;;11.68;8.40;;;;;;;10.75;100.00;101118.37;1678380;84;21099;-80
2022/05/30 03:12:48;;;;;;;18.85;9.18;;;;;;;10.84;100.00;101123.78;1649619;84;21614;-81
2022/05/30 03:15:16;;;;;;;11.12;8.33;;;;;;;10.93;100.00;101124.95;1668399;84;21021;-81
2022/05/30 03:17:45;;;;;;;15.95;9.43;;;;;;;11.02;100.00;101118.26;1679974;85;21052;-81
2022/05/30 03:20:12;;;;;;;11.50;8.23;;;;;;;11.12;100.00;101122.36;1680193;84;21128;-82
2022/05/30 03:22:40;;;;;;;11.15;9.10;;;;;;;11.22;100.00;101118.66;1680040;84;21055;-82
2022/05/30 03:25:26;;;;;;;10.98;8.95;;;;;;;11.31;100.00;101114.08;1680288;84;21549;-80
2022/05/30 03:27:56;;;;;;;12.58;9.40;;;;;;;11.38;100.00;101117.09;1678107;84;21049;-81
2022/05/30 03:30:24;;;;;;;14.65;9.90;;;;;;;11.40;100.00;101113.44;1687893;83;21017;-81
2022/05/30 03:32:51;;;;;;;15.43;10.38;;;;;;;11.46;100.00;101114.30;1687799;83;21097;-80
2022/05/30 03:35:19;;;;;;;15.63;9.98;;;;;;;11.54;100.00;101113.77;1687708;83;21021;-80
2022/05/30 03:37:48;;;;;;;15.18;9.40;;;;;;;11.63;100.00;101103.13;1681861;83;21139;-80
2022/05/30 03:40:37;;;;;;;14.65;10.23;;;;;;;11.71;100.00;101103.90;1605772;88;21107;-82
2022/05/30 03:43:21;;;;;;;19.77;11.73;;;;;;;11.79;100.00;101112.00;1595410;89;21145;-80
2022/05/30 03:45:49;;;;;;;14.55;10.90;;;;;;;11.82;100.00;101107.84;1654492;85;21188;-79
2022/05/30 03:48:20;;;;;;;17.55;10.98;;;;;;;11.83;100.00;101112.98;1680375;84;21065;-81
2022/05/30 03:50:48;;;;;;;16.15;11.45;;;;;;;11.88;100.00;101117.87;1647643;85;21052;-83
2022/05/30 03:53:15;;;;;;;16.45;11.33;;;;;;;11.95;100.00;101122.14;1680328;84;21104;-80
2022/05/30 03:55:46;;;;;;;16.85;11.75;;;;;;;11.99;100.00;101119.23;1687712;83;21159;-83
2022/05/30 03:58:15;;;;;;;22.05;11.83;;;;;;;12.04;100.00;101114.17;1683253;85;21039;-82
2022/05/30 04:00:45;;;;;;;19.55;10.85;;;;;;;12.07;100.00;101116.53;1687730;84;21072;-81
2022/05/30 04:03:14;;;;;;;18.37;12.23;;;;;;;12.12;100.00;101111.34;1687970;83;21301;-80
2022/05/30 04:05:43;;;;;;;15.83;11.18;;;;;;;12.21;100.00;101101.16;1687739;83;21036;-81
2022/05/30 04:08:12;;;;;;;15.72;11.68;;;;;;;12.30;100.00;101100.48;1687604;83;21116;-80
2022/05/30 04:11:00;;;;;;;20.20;12.35;;;;;;;12.41;100.00;101099.22;1687972;83;21268;-80
2022/05/30 04:13:45;;;;;;;15.98;11.20;;;;;;;12.54;100.00;101087.34;1658117;84;21017;-81
2022/05/30 04:16:14;;;;;;;19.05;11.90;;;;;;;12.63;100.00;101074.88;1681794;83;21005;-79
2022/05/30 04:18:44;;;;;;;17.07;12.58;;;;;;;12.72;100.00;101074.67;1687837;83;21037;-80
2022/05/30 04:21:13;;;;;;;17.48;12.18;;;;;;;12.85;100.00;101058.88;1688253;83;21544;-80
2022/05/30 04:23:42;;;;;;;20.15;13.55;;;;;;;12.99;100.00;101053.03;1658546;83;21139;-86
2022/05/30 04:26:15;;;;;;;17.77;12.63;;;;;;;13.13;100.00;101058.00;1688065;83;21535;-82
2022/05/30 04:28:44;;;;;;;22.75;13.40;;;;;;;13.22;100.00;101052.53;1686653;84;21028;-81
2022/05/30 04:31:30;;;;;;;25.52;13.90;;;;;;;13.35;100.00;101051.05;1689039;83;21062;-80
2022/05/30 04:33:57;;;;;;;18.98;14.38;;;;;;;13.49;100.00;101054.76;1689215;83;21025;-80
2022/05/30 04:36:24;;;;;;;18.15;13.72;;;;;;;13.61;100.00;101059.48;1689875;83;21156;-80
2022/05/30 04:38:54;;;;;;;19.95;13.75;;;;;;;13.70;100.00;101055.27;1689653;83;21097;-80
2022/05/30 04:41:36;;;;;;;21.10;14.68;;;;;;;13.77;100.00;101041.22;1689726;83;21025;-82
2022/05/30 04:44:24;;;;;;;21.10;14.90;;;;;;;13.85;100.00;101031.77;1613045;88;21091;-79
2022/05/30 04:47:11;;;;;;;21.02;14.60;;;;;;;13.94;100.00;101038.50;1604097;88;21103;-81
2022/05/30 04:49:39;;;;;;;19.82;15.00;;;;;;;14.02;100.00;101040.01;1638893;84;21423;-83
2022/05/30 04:52:09;;;;;;;25.15;16.75;;;;;;;14.11;100.00;101037.94;1689777;83;21677;-81
2022/05/30 04:54:37;;;;;;;21.55;15.30;;;;;;;14.18;100.00;101035.16;1689878;83;21016;-80
2022/05/30 04:57:21;;;;;;;24.20;15.32;;;;;;;14.26;100.00;101035.80;1687257;83;21043;-81
2022/05/30 04:59:56;;;;;;;19.07;14.60;;;;;;;14.36;100.00;101038.00;1686947;83;21062;-81
2022/05/30 05:02:23;;;;;;;31.95;16.25;;;;;;;14.51;100.00;101029.80;1690001;83;21128;-81
2022/05/30 05:04:52;;;;;;;26.17;14.75;;;;;;;14.63;100.00;101033.16;1675986;83;20962;-81
2022/05/30 05:07:19;;;;;;;23.22;15.18;;;;;;;14.76;100.00;101036.43;1654721;85;21085;-81
2022/05/30 05:09:56;;;;;;;19.00;15.63;;;;;;;14.89;100.00;101040.14;1650072;85;21048;-81
2022/05/30 05:12:44;;;;;;;23.25;15.83;;;;;;;15.05;100.00;101034.86;1668649;83;21017;-83
2022/05/30 05:15:23;;;;;;;19.73;14.40;;;;;;;15.23;100.00;101044.21;1677517;83;21286;-81
2022/05/30 05:18:04;;;;;;;25.92;16.25;;;;;;;15.39;100.00;101044.52;1678061;83;21563;-81
2022/05/30 05:20:41;;;;;;;24.23;17.12;;;;;;;15.52;100.00;101040.78;1681997;83;21064;-80
2022/05/30 05:23:09;;;;;;;22.95;16.15;;;;;;;15.59;100.00;101044.05;1688665;83;22181;-80
2022/05/30 05:25:53;;;;;;;28.57;18.20;;;;;;;15.66;100.00;101037.77;1689157;83;21059;-81
2022/05/30 05:28:28;;;;;;;26.35;16.25;;;;;;;15.81;100.00;101046.53;1681526;84;21890;-83
2022/05/30 05:30:58;;;;;;;22.35;15.78;;;;;;;15.96;100.00;101045.17;1679536;84;21059;-85
2022/05/30 05:33:25;;;;;;;22.02;16.05;;;;;;;16.12;100.00;101048.52;1667363;84;21097;-82
2022/05/30 05:35:53;;;;;;;29.12;16.70;;;;;;;16.27;100.00;101040.18;1664004;84;21096;-83
2022/05/30 05:38:21;;;;;;;22.65;16.48;;;;;;;16.35;100.00;101041.14;1628501;84;21128;-81
2022/05/30 05:41:07;;;;;;;23.75;17.52;;;;;;;16.45;100.00;101045.55;1646206;84;21175;-85
2022/05/30 05:43:38;;;;;;;24.72;16.87;;;;;;;16.58;100.00;101039.97;1649937;84;21100;-82
2022/05/30 05:46:15;;;;;;;23.15;16.05;;;;;;;16.75;100.00;101035.23;1645335;85;21037;-81
2022/05/30 05:48:42;;;;;;;21.23;15.78;;;;;;;16.88;100.00;101037.05;1623085;87;21060;-81
2022/05/30 05:51:09;;;;;;;26.40;18.23;;;;;;;17.08;100.00;101036.14;1645315;85;21995;-81
2022/05/30 05:53:37;;;;;;;23.42;16.30;;;;;;;17.24;100.00;101030.22;1645638;85;21841;-82
2022/05/30 05:56:15;;;;;;;23.92;17.55;;;;;;;17.38;100.00;101029.72;1629340;85;21030;-84
2022/05/30 05:58:42;;;;;;;25.65;17.15;;;;;;;17.50;100.00;101027.19;1672393;84;21029;-84
2022/05/30 06:01:16;;;;;;;25.60;17.70;;;;;;;17.65;100.00;101024.86;1680110;83;21082;-81
2022/05/30 06:03:43;;;;;;;24.82;17.27;;;;;;;17.77;100.00;101025.92;1672422;83;21025;-81
2022/05/30 06:06:22;;;;;;;19.65;16.27;;;;;;;17.90;100.00;101022.89;1622387;86;21155;-81
2022/05/30 06:08:56;;;;;;;20.77;17.23;;;;;;;18.01;100.00;101025.32;1644488;87;21055;-81
2022/05/30 06:11:43;;;;;;;19.87;16.17;;;;;;;18.15;100.00;101028.36;1649336;83;21108;-81
2022/05/30 06:14:10;;;;;;;24.60;18.27;;;;;;;18.29;100.00;101025.98;1661788;83;21070;-86
2022/05/30 06:16:40;;;;;;;25.70;17.00;;;;;;;18.42;100.00;101024.72;1652697;83;21543;-82
2022/05/30 06:19:09;;;;;;;26.80;18.65;;;;;;;18.54;100.00;101023.48;1650935;86;22081;-81
2022/05/30 06:21:36;;;;;;;22.32;16.20;;;;;;;18.70;100.00;101026.67;1660989;84;21470;-81
2022/05/30 06:24:07;;;;;;;27.27;18.70;;;;;;;18.83;100.00;101015.67;1680158;84;21577;-86
2022/05/30 06:26:52;;;;;;;22.60;17.00;;;;;;;18.98;100.00;101015.92;1680072;84;21095;-85
2022/05/30 06:29:21;;;;;;;25.57;18.75;;;;;;;19.08;100.00;101009.17;1681560;83;22238;-83
2022/05/30 06:31:51;;;;;;;22.90;17.75;;;;;;;19.16;100.00;101001.27;1685392;83;21133;-81
2022/05/30 06:34:19;;;;;;;27.02;17.27;;;;;;;19.22;100.00;101001.12;1664609;84;21093;-84
2022/05/30 06:36:47;;;;;;;24.25;17.30;;;;;;;19.31;100.00;100995.34;1694957;83;21071;-83
2022/05/30 06:39:17;;;;;;;25.35;17.77;;;;;;;19.41;100.00;100994.70;1694981;83;21536;-81
2022/05/30 06:41:48;;;;;;;22.52;17.77;;;;;;;19.52;100.00;100994.86;1689177;83;21609;-82
2022/05/30 06:44:15;;;;;;;23.02;17.37;;;;;;;19.64;100.00;100992.71;1694984;83;21312;-81
2022/05/30 06:47:00;;;;;;;23.55;17.02;;;;;;;19.75;100.00;100992.36;1695018;83;21059;-81
2022/05/30 06:49:47;;;;;;;20.57;15.68;;;;;;;19.89;100.00;100997.50;1694994;83;21004;-81
2022/05/30 06:52:16;;;;;;;21.70;17.00;;;;;;;20.07;100.00;100997.29;1695071;83;21090;-82
2022/05/30 06:54:46;;;;;;;29.20;17.37;;;;;;;20.21;100.00;101010.31;1695437;83;21631;-82
2022/05/30 07:00:13;;;;;;;27.60;17.65;;;;;;;20.50;100.00;101010.24;1694891;83;20991;-83
2022/05/30 07:02:56;;;;;;;20.30;15.75;;;;;;;20.66;100.00;101006.69;1681166;83;21064;-82
2022/05/30 07:05:39;;;;;;;20.92;15.53;;;;;;;20.84;100.00;101002.48;1629641;85;21063;-83
2022/05/30 07:08:14;;;;;;;23.50;17.65;;;;;;;21.00;100.00;101002.06;1659112;84;21069;-83
2022/05/30 07:10:54;;;;;;;23.80;17.12;;;;;;;21.09;100.00;101001.86;1665213;84;22020;-84
2022/05/30 07:13:22;;;;;;;23.38;16.57;;;;;;;21.17;100.00;101004.94;1665374;84;21512;-83
2022/05/30 07:15:52;;;;;;;24.23;16.25;;;;;;;21.23;100.00;100998.12;1686987;85;21082;-84
2022/05/30 07:18:30;;;;;;;26.85;17.48;;;;;;;21.32;100.00;100999.72;1682514;85;21596;-84
2022/05/30 07:21:03;;;;;;;22.48;17.32;;;;;;;21.40;100.00;100983.76;1659062;85;21038;-84
2022/05/30 07:23:33;;;;;;;54.10;29.65;;;;;;;21.52;100.00;100984.16;1729503;83;21775;-84
2022/05/30 07:26:21;;;;;;;23.80;16.77;;;;;;;21.65;100.00;100983.58;1691800;84;21093;-83
2022/05/30 07:29:08;;;;;;;23.30;14.95;;;;;;;21.79;100.00;100984.62;1687588;84;21062;-85
2022/05/30 07:32:02;;;;;;;20.05;14.95;;;;;;;21.89;100.00;100983.02;1687698;84;21026;-84
2022/05/30 07:34:48;;;;;;;24.20;15.58;;;;;;;22.01;100.00;100978.91;1688104;84;21050;-83
2022/05/30 07:37:29;;;;;;;21.65;15.25;;;;;;;22.16;100.00;100981.57;1637135;83;21140;-86
2022/05/30 07:40:01;;;;;;;22.90;14.58;;;;;;;22.32;100.00;100977.89;1671593;84;21544;-82
2022/05/30 07:42:41;;;;;;;21.70;15.88;;;;;;;22.46;100.00;100976.78;1676070;83;21077;-84
2022/05/30 07:45:18;;;;;;;21.02;14.18;;;;;;;22.63;100.00;100981.36;1687335;83;21073;-84
2022/05/30 07:48:06;;;;;;;19.35;12.98;;;;;;;22.82;100.00;100983.44;1661939;84;21854;-88
2022/05/30 07:50:37;;;;;;;16.52;12.90;;;;;;;22.98;100.00;100977.05;1653625;83;22196;-84
2022/05/30 07:53:06;;;;;;;18.10;13.28;;;;;;;23.14;100.00;100985.28;1682063;83;21040;-84
2022/05/30 07:55:51;;;;;;;21.12;14.25;;;;;;;23.33;100.00;100991.50;1683988;83;21668;-85
2022/05/30 07:58:18;;;;;;;16.85;12.70;;;;;;;23.45;100.00;100989.96;1687739;83;21565;-84
2022/05/30 08:00:50;;;;;;;16.60;12.33;;;;;;;23.54;100.00;100985.34;1688065;83;21646;-87
2022/05/30 08:03:17;;;;;;;23.70;11.12;;;;;;;23.65;100.00;100986.66;1684983;83;21140;-85
2022/05/30 08:05:47;;;;;;;13.03;10.78;;;;;;;23.72;100.00;100979.02;1683869;83;21096;-84
2022/05/30 08:08:35;;;;;;;17.75;10.90;;;;;;;23.80;100.00;100979.40;1688030;83;21104;-84
2022/05/30 08:11:04;;;;;;;14.78;10.43;;;;;;;23.98;100.00;100984.23;1680408;83;21561;-83
2022/05/30 08:13:34;;;;;;;14.40;9.58;;;;;;;24.14;100.00;100974.30;1685791;83;21604;-84
2022/05/30 08:16:04;;;;;;;14.98;9.80;;;;;;;24.24;100.00;100971.58;1681196;83;21084;-84
2022/05/30 08:18:33;;;;;;;12.53;9.35;;;;;;;24.41;100.00;100972.58;1659947;83;21040;-89
2022/05/30 08:21:04;;;;;;;10.82;8.83;;;;;;;24.54;100.00;100960.67;1675409;84;21095;-85
2022/05/30 08:23:34;;;;;;;;;;;;;;;24.68;100.00;100960.73;1677720;83;21537;-84
2022/05/30 08:26:03;;;;;;;12.25;9.28;;;;;;;24.84;100.00;100961.70;1671680;83;20162;-85
2022/05/30 08:28:33;;;;;;;12.68;9.90;;;;;;;24.95;100.00;100964.27;1671073;84;21245;-86
2022/05/30 08:31:02;;;;;;;14.85;9.65;;;;;;;25.03;100.00;100972.07;1679520;83;21065;-85
2022/05/30 08:33:42;;;;;;;8.33;7.30;;;;;;;25.13;100.00;100962.86;1680090;84;21016;-85
2022/05/30 08:36:17;;;;;;;8.08;7.30;;;;;;;25.27;99.66;100957.04;1678831;83;22261;-84
2022/05/30 08:38:45;;;;;;;7.33;6.45;;;;;;;25.41;97.78;100947.20;1650993;84;21172;-85
2022/05/30 08:44:03;;;;;;;12.10;7.72;;;;;;;25.51;88.49;100945.78;1663784;84;21639;-85
2022/05/30 08:46:57;;;;;;;10.43;7.28;;;;;;;25.57;85.97;100945.97;1654044;86;21079;-86
2022/05/30 08:49:35;;;;;;;11.78;9.18;;;;;;;25.61;84.80;100940.52;1676069;84;21645;-86
2022/05/30 08:52:11;;;;;;;17.62;8.00;;;;;;;25.71;86.71;100943.59;1636721;86;21161;-85
2022/05/30 08:55:09;;;;;;;8.15;7.35;;;;;;;25.84;79.59;100937.41;1593454;85;21700;-88
2022/05/30 08:57:52;;;;;;;11.15;7.00;;;;;;;25.91;84.44;100934.73;1665514;84;21094;-86
2022/05/30 09:00:31;;;;;;;6.85;6.15;;;;;;;25.91;81.53;100926.73;1669375;85;21142;-85
2022/05/30 09:03:29;;;;;;;8.35;6.65;;;;;;;25.93;79.57;100919.31;1663590;84;21064;-84
2022/05/30 09:06:12;;;;;;;8.78;7.42;;;;;;;26.01;79.87;100911.61;1656843;85;21607;-85
2022/05/30 09:08:48;;;;;;;7.35;6.58;;;;;;;26.09;82.95;100920.21;1672642;84;21189;-85
2022/05/30 09:11:41;;;;;;;8.13;6.83;;;;;;;26.21;84.98;100927.56;1652056;85;21007;-86
2022/05/30 09:14:19;;;;;;;26.85;7.83;;;;;;;26.31;81.36;100931.95;1667355;84;21066;-91
2022/05/30 09:16:51;;;;;;;22.40;7.25;;;;;;;26.38;78.83;100930.06;1672291;84;21032;-87
2022/05/30 09:19:24;;;;;;;8.83;7.50;;;;;;;26.45;70.95;100926.00;1646329;85;21070;-86
2022/05/30 09:22:01;;;;;;;9.40;7.47;;;;;;;26.53;77.45;100928.42;1659489;85;21895;-85
2022/05/30 09:24:26;;;;;;;7.67;6.58;;;;;;;26.58;64.50;100930.45;1665430;84;21055;-86
2022/05/30 09:26:54;;;;;;;7.97;6.65;;;;;;;26.60;73.56;100924.39;1670870;84;21045;-86
2022/05/30 09:29:44;;;;;;;21.20;6.78;;;;;;;26.69;74.32;100925.77;1636562;86;21110;-87
2022/05/30 09:32:44;;;;;;;7.22;5.45;;;;;;;26.76;63.84;100926.58;1674311;84;21147;-87
2022/05/30 09:35:33;;;;;;;9.58;7.15;;;;;;;26.80;66.69;100918.14;1633228;85;21766;-86
2022/05/30 09:38:13;;;;;;;9.65;7.12;;;;;;;26.85;65.77;100912.96;1657606;84;21662;-86
2022/05/30 09:40:53;;;;;;;10.80;9.37;;;;;;;26.93;63.92;100906.82;1632745;85;21085;-87
2022/05/30 09:43:50;;;;;;;10.23;8.45;;;;;;;27.05;65.77;100905.59;1663845;84;21865;-91
2022/05/30 09:46:26;;;;;;;9.18;6.30;;;;;;;27.13;63.65;100909.03;1626569;86;21090;-85
2022/05/30 09:49:11;;;;;;;8.45;7.08;;;;;;;27.13;61.69;100901.02;1647941;84;22414;-88
2022/05/30 09:51:54;;;;;;;30.37;6.75;;;;;;;27.14;60.55;100899.98;1654359;85;21365;-85
2022/05/30 09:54:37;;;;;;;7.42;5.65;;;;;;;27.19;62.88;100890.80;1670838;84;21139;-89
2022/05/30 09:57:15;;;;;;;6.65;5.53;;;;;;;27.23;62.85;100891.48;1647904;86;21078;-86
2022/05/30 09:59:48;;;;;;;9.50;5.40;;;;;;;27.34;58.41;100889.94;1635653;84;21558;-86
2022/05/30 10:02:34;;;;;;;7.50;5.62;;;;;;;27.50;57.00;100879.73;1675363;84;21959;-86
2022/05/30 10:05:16;;;;;;;12.43;7.62;;;;;;;27.62;58.67;100878.48;1677686;84;21148;-88
2022/05/30 10:07:57;;;;;;;8.25;6.05;;;;;;;27.69;57.34;100880.55;1671563;84;21162;-90
2022/05/30 10:10:36;;;;;;;8.95;5.50;;;;;;;27.81;57.75;100876.61;1671471;84;21084;-86
2022/05/30 10:13:08;;;;;;;9.05;4.95;;;;;;;27.93;55.15;100882.02;1650434;85;21715;-88
2022/05/30 10:15:59;;;;;;;6.95;4.95;;;;;;;27.94;52.88;100886.34;1671392;84;21175;-88
2022/05/30 10:18:38;;;;;;;5.90;5.08;;;;;;;27.95;55.17;100887.44;1636723;85;21105;-86
2022/05/30 10:21:32;;;;;;;16.30;5.03;;;;;;;27.99;57.19;100888.64;1660651;84;21088;-86
2022/05/30 10:28:15;;;;;;;15.68;5.10;;;;;;;28.24;54.09;100883.72;1669486;85;21079;-86
2022/05/30 10:31:24;;;;;;;4.42;4.03;;;;;;;28.31;53.77;100880.94;1666473;84;21255;-88
2022/05/30 10:34:18;;;;;;;4.80;4.37;;;;;;;28.44;49.93;100869.22;1682235;83;21080;-87
2022/05/30 10:37:07;;;;;;;5.12;4.53;;;;;;;28.58;50.79;100867.17;1688085;83;21068;-89
2022/05/30 10:39:51;;;;;;;8.97;6.07;;;;;;;28.69;52.42;100864.21;1646171;83;21084;-88
2022/05/30 10:42:50;;;;;;;7.47;4.80;;;;;;;28.80;50.61;100860.78;1674611;83;21061;-86
2022/05/30 10:45:34;;;;;;;5.62;4.47;;;;;;;28.78;50.79;100852.15;1655738;84;21159;-86
2022/05/30 10:48:06;;;;;;;9.63;4.62;;;;;;;28.78;52.21;100862.33;1686740;84;21143;-85
2022/05/30 10:50:42;;;;;;;11.65;4.62;;;;;;;28.81;51.07;100865.06;1683364;83;21123;-86
2022/05/30 10:53:25;;;;;;;7.60;4.30;;;;;;;28.80;50.78;100860.78;1667484;83;21044;-85
2022/05/30 10:56:46;;;;;;;5.37;4.65;;;;;;;28.78;49.68;100866.89;1664175;80;21076;-88
2022/05/30 10:59:36;;;;;;;8.93;4.85;;;;;;;28.70;50.71;100876.06;1670811;84;21289;-84
2022/05/30 11:02:27;;;;;;;4.62;4.20;;;;;;;28.67;48.74;100876.51;1649405;86;21039;-85
2022/05/30 11:05:04;;;;;;;14.60;4.58;;;;;;;28.69;49.28;100880.28;1693137;83;21546;-87
2022/05/30 11:08:05;;;;;;;5.45;4.03;;;;;;;28.75;49.09;100868.67;1701499;83;21530;-84
2022/05/30 11:10:52;;;;;;;5.40;4.85;;;;;;;28.87;49.61;100855.29;1709603;83;21084;-85
2022/05/30 11:13:38;;;;;;;7.33;5.00;;;;;;;29.01;49.89;100850.52;1704990;82;21151;-86
2022/05/30 11:16:48;;;;;;;11.22;5.72;;;;;;;29.00;50.19;100839.00;1653652;84;21129;-83
2022/05/30 11:20:09;;;;;;;8.70;4.92;;;;;;;28.91;50.85;100837.72;1638262;85;21112;-86
2022/05/30 11:22:54;;;;;;;49.80;7.20;;;;;;;28.74;50.11;100838.41;1639378;86;21070;-85
2022/05/30 11:25:48;;;;;;;7.50;4.75;;;;;;;28.49;50.40;100842.56;1638846;85;21054;-88
2022/05/30 11:29:03;;;;;;;7.12;4.90;;;;;;;28.23;50.73;100846.45;1685497;82;21221;-88
2022/05/30 11:32:02;;;;;;;11.10;4.45;;;;;;;27.95;50.74;100844.63;1659710;85;21087;-85
2022/05/30 11:34:48;;;;;;;6.08;4.47;;;;;;;27.74;51.84;100842.44;1662391;84;21136;-87
2022/05/30 11:37:29;;;;;;;5.20;4.37;;;;;;;27.62;51.79;100845.05;1659760;85;21715;-88
2022/05/30 11:40:18;;;;;;;4.47;4.08;;;;;;;27.61;51.61;100841.54;1663894;84;21056;-88
2022/05/30 11:43:35;;;;;;;6.42;4.40;;;;;;;27.77;48.69;100845.98;1649971;86;21130;-86
2022/05/30 11:46:29;;;;;;;6.05;4.53;;;;;;;27.90;49.72;100847.68;1663486;86;20979;-87
2022/05/30 11:49:14;;;;;;;6.08;4.80;;;;;;;28.13;52.95;100840.31;1658401;86;21619;-88
2022/05/30 11:51:47;;;;;;;5.03;4.53;;;;;;;28.27;54.85;100839.61;1660153;84;21621;-88
2022/05/30 11:54:59;;;;;;;7.20;5.20;;;;;;;28.26;53.77;100841.45;1660553;85;21034;-88
2022/05/30 11:57:38;;;;;;;9.88;5.17;;;;;;;28.17;52.63;100833.45;1691678;83;21794;-87
2022/05/30 12:00:19;;;;;;;7.08;4.50;;;;;;;28.09;52.65;100845.81;1644093;85;21058;-90
2022/05/30 12:02:58;;;;;;;5.15;4.55;;;;;;;28.10;53.39;100838.91;1620444;87;21090;-89
2022/05/30 12:05:57;;;;;;;6.15;4.58;;;;;;;28.11;52.40;100833.86;1587384;86;21589;-89
2022/05/30 12:09:03;;;;;;;5.92;4.30;;;;;;;28.14;51.41;100840.62;1707378;82;21056;-90